Lady Nur — 3FFE2 — position and weather

sailwx.info

Track history (hours):
 
Tides and Currents Weather Stations Pressure Air Temp Water Temp Dewpoint Dewpoint Depression Visibility Wind Speed Wind Dir Waves Ship Positions

Lady Nur

Last reported at 2014-Nov-30 23:20 UTC. Time now 2014-Dec-22 01:21 UTC.
Position N 40°57' E 028°60'.
Warning: this ship's position is 21 days out of date.

Length 82 m; draft 3.5 m.

Type: Cargo ship. MMSI: 373237000.

Date/timePositionNaut miles runAvg speedWind from/ knotsBaromVisibWave heightAir tempDewpointWater temp
2014-Nov-30 23:20N 40°57' E 028°60'3 3.5
2014-Nov-30 22:32N 40°58' E 028°56'0 0.0
2014-Nov-30 20:26N 40°58' E 028°56'0 0.0
2014-Nov-30 19:14N 40°58' E 028°56'0 0.0
2014-Nov-30 18:26N 40°58' E 028°56'0 0.0
2014-Nov-30 17:26N 40°58' E 028°56'0 0.0
2014-Nov-30 16:32N 40°58' E 028°56'0 0.0
2014-Nov-30 15:32N 40°58' E 028°56'0 0.0
2014-Nov-30 13:26N 40°58' E 028°56'0 0.0
2014-Nov-30 09:14N 40°58' E 028°56'0 0.0
2014-Nov-30 06:14N 40°58' E 028°56'0 0.0
2014-Nov-30 05:32N 40°58' E 028°56'0 0.0
2014-Nov-30 02:19N 40°58' E 028°56'0 0.0
2014-Nov-30 00:31N 40°58' E 028°56'0 0.0
2014-Nov-29 22:16N 40°58' E 028°56'2 2.2
2014-Nov-29 21:17N 40°56' E 028°57'6 8.6
2014-Nov-29 20:33N 40°51' E 029°03'9 8.9
2014-Nov-29 19:33N 40°51' E 029°14'2 2.0
2014-Nov-29 18:29N 40°51' E 029°17'0 0.0
2014-Nov-29 17:29N 40°51' E 029°17'0 0.0
2014-Nov-29 16:29N 40°51' E 029°17'0 0.0
2014-Nov-29 15:17N 40°51' E 029°17'0 0.0
2014-Nov-29 14:29N 40°51' E 029°17'0 0.0
2014-Nov-29 13:29N 40°51' E 029°17'0 0.0
2014-Nov-29 12:29N 40°51' E 029°17'0 0.0
2014-Nov-29 11:23N 40°51' E 029°17'0 0.0
2014-Nov-29 10:29N 40°51' E 029°17'0 0.0
2014-Nov-29 09:29N 40°51' E 029°17'0 0.0
2014-Nov-29 08:23N 40°51' E 029°17'0 0.0
2014-Nov-29 07:17N 40°51' E 029°17'0 0.0
2014-Nov-29 06:29N 40°51' E 029°17'0 0.0
2014-Nov-29 05:22N 40°51' E 029°17'0 0.0
2014-Nov-29 04:16N 40°51' E 029°17'0 0.0
2014-Nov-29 03:28N 40°51' E 029°17'0 0.0
2014-Nov-29 02:28N 40°51' E 029°17'0 0.0
2014-Nov-29 01:28N 40°51' E 029°17'0 0.0
2014-Nov-29 00:22N 40°51' E 029°17'0 0.0
2014-Nov-28 23:28N 40°51' E 029°17'0 0.0
2014-Nov-28 22:28N 40°51' E 029°17'0 0.0
2014-Nov-28 21:28N 40°51' E 029°17'0 0.0
2014-Nov-28 20:16N 40°51' E 029°17'0 0.0
2014-Nov-28 19:16N 40°51' E 029°17'0 0.0
2014-Nov-28 18:22N 40°51' E 029°17'0 0.0
2014-Nov-28 17:28N 40°51' E 029°17'0 0.0
2014-Nov-28 16:31N 40°51' E 029°17'0 0.0
2014-Nov-28 15:25N 40°51' E 029°17'0 0.0
2014-Nov-28 14:25N 40°51' E 029°17'0 0.0
2014-Nov-28 13:25N 40°51' E 029°17'0 0.0
2014-Nov-28 12:31N 40°51' E 029°17'0 0.0
2014-Nov-28 11:13N 40°51' E 029°17'0 0.0
2014-Nov-28 10:28N 40°51' E 029°17'0 0.0
2014-Nov-28 09:28N 40°51' E 029°17'0 0.0
2014-Nov-28 08:28N 40°51' E 029°17'0 0.0
2014-Nov-28 07:28N 40°51' E 029°17'0 0.0
2014-Nov-28 06:16N 40°51' E 029°17'0 0.0
2014-Nov-28 05:04N 40°51' E 029°17'0 0.0
2014-Nov-28 04:28N 40°51' E 029°17'0 0.0
2014-Nov-28 03:10N 40°51' E 029°17'0 0.0
2014-Nov-28 02:22N 40°51' E 029°17'0 0.0
2014-Nov-28 01:28N 40°51' E 029°17'0 0.0
2014-Nov-28 00:28N 40°51' E 029°17'0 0.0
2014-Nov-27 23:28N 40°51' E 029°17'0 0.0
2014-Nov-27 22:22N 40°51' E 029°17'0 0.0
2014-Nov-27 21:22N 40°51' E 029°17'0 0.0
2014-Nov-27 20:22N 40°51' E 029°17'0 0.0
2014-Nov-27 19:28N 40°51' E 029°17'0 0.0
2014-Nov-27 18:28N 40°51' E 029°17'0 0.0
2014-Nov-27 17:34N 40°51' E 029°17'0 0.0
2014-Nov-27 16:33N 40°51' E 029°17'0 0.0
2014-Nov-27 15:33N 40°51' E 029°17'0 0.0
2014-Nov-27 14:33N 40°51' E 029°17'0 0.0
2014-Nov-27 13:27N 40°51' E 029°17'0 0.0
2014-Nov-27 12:27N 40°51' E 029°17'0 0.1
2014-Nov-27 11:33N 40°51' E 029°17'3 2.7
2014-Nov-27 10:33N 40°50' E 029°13'8 7.8
2014-Nov-27 09:30N 40°48' E 029°03'10 8.5
2014-Nov-27 08:22N 40°47' E 028°50'303 6.3
2014-Nov-25 08:33N 37°41' E 023°42'8 7.6
2014-Nov-25 07:33N 37°47' E 023°37'7 7.0
2014-Nov-25 06:33N 37°50' E 023°29'8 7.5
2014-Nov-25 05:33N 37°51' E 023°20'8 7.4
2014-Nov-25 04:29N 37°52' E 023°10'8 7.2
2014-Nov-25 03:26N 37°55' E 023°01'  
Track history (hours):
 
Tides and Currents Weather Stations Pressure Air Temp Water Temp Dewpoint Dewpoint Depression Visibility Wind Speed Wind Dir Waves Ship Positions

Lady Nur

Last reported at 2014-Nov-30 23:20 UTC. Time now 2014-Dec-22 01:21 UTC.
Position N 40°57' E 028°60'.
Warning: this ship's position is 21 days out of date.

Length 82 m; draft 3.5 m.

Type: Cargo ship. MMSI: 373237000.

Date/timePositionNaut miles runAvg speedWind from/ knotsBaromVisibWave heightAir tempDewpointWater temp
2014-Nov-30 23:20N 40°57' E 028°60'3 3.5
2014-Nov-30 22:32N 40°58' E 028°56'0 0.0
2014-Nov-30 20:26N 40°58' E 028°56'0 0.0
2014-Nov-30 19:14N 40°58' E 028°56'0 0.0
2014-Nov-30 18:26N 40°58' E 028°56'0 0.0
2014-Nov-30 17:26N 40°58' E 028°56'0 0.0
2014-Nov-30 16:32N 40°58' E 028°56'0 0.0
2014-Nov-30 15:32N 40°58' E 028°56'0 0.0
2014-Nov-30 13:26N 40°58' E 028°56'0 0.0
2014-Nov-30 09:14N 40°58' E 028°56'0 0.0
2014-Nov-30 06:14N 40°58' E 028°56'0 0.0
2014-Nov-30 05:32N 40°58' E 028°56'0 0.0
2014-Nov-30 02:19N 40°58' E 028°56'0 0.0
2014-Nov-30 00:31N 40°58' E 028°56'0 0.0
2014-Nov-29 22:16N 40°58' E 028°56'2 2.2
2014-Nov-29 21:17N 40°56' E 028°57'6 8.6
2014-Nov-29 20:33N 40°51' E 029°03'9 8.9
2014-Nov-29 19:33N 40°51' E 029°14'2 2.0
2014-Nov-29 18:29N 40°51' E 029°17'0 0.0
2014-Nov-29 17:29N 40°51' E 029°17'0 0.0
2014-Nov-29 16:29N 40°51' E 029°17'0 0.0
2014-Nov-29 15:17N 40°51' E 029°17'0 0.0
2014-Nov-29 14:29N 40°51' E 029°17'0 0.0
2014-Nov-29 13:29N 40°51' E 029°17'0 0.0
2014-Nov-29 12:29N 40°51' E 029°17'0 0.0
2014-Nov-29 11:23N 40°51' E 029°17'0 0.0
2014-Nov-29 10:29N 40°51' E 029°17'0 0.0
2014-Nov-29 09:29N 40°51' E 029°17'0 0.0
2014-Nov-29 08:23N 40°51' E 029°17'0 0.0
2014-Nov-29 07:17N 40°51' E 029°17'0 0.0
2014-Nov-29 06:29N 40°51' E 029°17'0 0.0
2014-Nov-29 05:22N 40°51' E 029°17'0 0.0
2014-Nov-29 04:16N 40°51' E 029°17'0 0.0
2014-Nov-29 03:28N 40°51' E 029°17'0 0.0
2014-Nov-29 02:28N 40°51' E 029°17'0 0.0
2014-Nov-29 01:28N 40°51' E 029°17'0 0.0
2014-Nov-29 00:22N 40°51' E 029°17'0 0.0
2014-Nov-28 23:28N 40°51' E 029°17'0 0.0
2014-Nov-28 22:28N 40°51' E 029°17'0 0.0
2014-Nov-28 21:28N 40°51' E 029°17'0 0.0
2014-Nov-28 20:16N 40°51' E 029°17'0 0.0
2014-Nov-28 19:16N 40°51' E 029°17'0 0.0
2014-Nov-28 18:22N 40°51' E 029°17'0 0.0
2014-Nov-28 17:28N 40°51' E 029°17'0 0.0
2014-Nov-28 16:31N 40°51' E 029°17'0 0.0
2014-Nov-28 15:25N 40°51' E 029°17'0 0.0
2014-Nov-28 14:25N 40°51' E 029°17'0 0.0
2014-Nov-28 13:25N 40°51' E 029°17'0 0.0
2014-Nov-28 12:31N 40°51' E 029°17'0 0.0
2014-Nov-28 11:13N 40°51' E 029°17'0 0.0
2014-Nov-28 10:28N 40°51' E 029°17'0 0.0
2014-Nov-28 09:28N 40°51' E 029°17'0 0.0
2014-Nov-28 08:28N 40°51' E 029°17'0 0.0
2014-Nov-28 07:28N 40°51' E 029°17'0 0.0
2014-Nov-28 06:16N 40°51' E 029°17'0 0.0
2014-Nov-28 05:04N 40°51' E 029°17'0 0.0
2014-Nov-28 04:28N 40°51' E 029°17'0 0.0
2014-Nov-28 03:10N 40°51' E 029°17'0 0.0
2014-Nov-28 02:22N 40°51' E 029°17'0 0.0
2014-Nov-28 01:28N 40°51' E 029°17'0 0.0
2014-Nov-28 00:28N 40°51' E 029°17'0 0.0
2014-Nov-27 23:28N 40°51' E 029°17'0 0.0
2014-Nov-27 22:22N 40°51' E 029°17'0 0.0
2014-Nov-27 21:22N 40°51' E 029°17'0 0.0
2014-Nov-27 20:22N 40°51' E 029°17'0 0.0
2014-Nov-27 19:28N 40°51' E 029°17'0 0.0
2014-Nov-27 18:28N 40°51' E 029°17'0 0.0
2014-Nov-27 17:34N 40°51' E 029°17'0 0.0
2014-Nov-27 16:33N 40°51' E 029°17'0 0.0
2014-Nov-27 15:33N 40°51' E 029°17'0 0.0
2014-Nov-27 14:33N 40°51' E 029°17'0 0.0
2014-Nov-27 13:27N 40°51' E 029°17'0 0.0
2014-Nov-27 12:27N 40°51' E 029°17'0 0.1
2014-Nov-27 11:33N 40°51' E 029°17'3 2.7
2014-Nov-27 10:33N 40°50' E 029°13'8 7.8
2014-Nov-27 09:30N 40°48' E 029°03'10 8.5
2014-Nov-27 08:22N 40°47' E 028°50'303 6.3
2014-Nov-25 08:33N 37°41' E 023°42'8 7.6
2014-Nov-25 07:33N 37°47' E 023°37'7 7.0
2014-Nov-25 06:33N 37°50' E 023°29'8 7.5
2014-Nov-25 05:33N 37°51' E 023°20'8 7.4
2014-Nov-25 04:29N 37°52' E 023°10'8 7.2
2014-Nov-25 03:26N 37°55' E 023°01'  

Dump ship's entire track history